sensor_id;sensor_type;location;lat;lon;timestamp;temperature;humidity
54788;DHT22;59598;48.112;16.280;2024-02-23T00:02:17;8.40;99.90
54788;DHT22;59598;48.112;16.280;2024-02-23T00:04:48;8.50;99.90
54788;DHT22;59598;48.112;16.280;2024-02-23T00:07:20;8.50;99.90
54788;DHT22;59598;48.112;16.280;2024-02-23T00:09:51;8.50;35.80
54788;DHT22;59598;48.112;16.280;2024-02-23T00:12:22;8.50;1.00
54788;DHT22;59598;48.112;16.280;2024-02-23T00:14:53;8.40;99.90
54788;DHT22;59598;48.112;16.280;2024-02-23T00:17:24;8.40;99.90
54788;DHT22;59598;48.112;16.280;2024-02-23T00:19:55;8.40;99.90
54788;DHT22;59598;48.112;16.280;2024-02-23T00:22:26;8.40;99.90
54788;DHT22;59598;48.112;16.280;2024-02-23T00:24:58;8.30;99.90
54788;DHT22;59598;48.112;16.280;2024-02-23T00:27:29;8.40;1.00
54788;DHT22;59598;48.112;16.280;2024-02-23T00:30:00;8.50;99.90
54788;DHT22;59598;48.112;16.280;2024-02-23T00:32:31;8.50;99.90
54788;DHT22;59598;48.112;16.280;2024-02-23T00:35:03;8.50;99.90
54788;DHT22;59598;48.112;16.280;2024-02-23T00:37:34;8.50;99.90
54788;DHT22;59598;48.112;16.280;2024-02-23T00:40:06;8.50;99.90
54788;DHT22;59598;48.112;16.280;2024-02-23T00:42:38;8.50;99.90
54788;DHT22;59598;48.112;16.280;2024-02-23T00:45:09;8.40;99.90
54788;DHT22;59598;48.112;16.280;2024-02-23T00:47:40;8.40;99.90
54788;DHT22;59598;48.112;16.280;2024-02-23T00:50:12;8.40;1.00
54788;DHT22;59598;48.112;16.280;2024-02-23T00:52:43;8.40;1.00
54788;DHT22;59598;48.112;16.280;2024-02-23T00:55:14;8.50;1.00
54788;DHT22;59598;48.112;16.280;2024-02-23T00:57:45;8.40;1.00
54788;DHT22;59598;48.112;16.280;2024-02-23T01:00:17;8.30;1.00
54788;DHT22;59598;48.112;16.280;2024-02-23T01:02:48;8.30;1.00
54788;DHT22;59598;48.112;16.280;2024-02-23T01:05:19;8.30;1.00
54788;DHT22;59598;48.112;16.280;2024-02-23T01:07:50;8.20;1.00
54788;DHT22;59598;48.112;16.280;2024-02-23T01:10:21;8.30;1.00
54788;DHT22;59598;48.112;16.280;2024-02-23T01:12:53;8.30;99.90
54788;DHT22;59598;48.112;16.280;2024-02-23T01:15:24;8.20;99.90
54788;DHT22;59598;48.112;16.280;2024-02-23T01:17:55;8.20;1.00
54788;DHT22;59598;48.112;16.280;2024-02-23T01:20:27;8.30;99.90
54788;DHT22;59598;48.112;16.280;2024-02-23T01:22:58;8.40;1.00
54788;DHT22;59598;48.112;16.280;2024-02-23T01:25:29;8.30;99.90
54788;DHT22;59598;48.112;16.280;2024-02-23T01:28:00;8.30;99.90
54788;DHT22;59598;48.112;16.280;2024-02-23T01:30:32;8.20;99.90
54788;DHT22;59598;48.112;16.280;2024-02-23T01:33:03;8.20;1.00
54788;DHT22;59598;48.112;16.280;2024-02-23T01:35:34;8.30;1.00
54788;DHT22;59598;48.112;16.280;2024-02-23T01:38:07;8.20;1.00
54788;DHT22;59598;48.112;16.280;2024-02-23T01:40:38;8.30;1.00
54788;DHT22;59598;48.112;16.280;2024-02-23T01:43:09;8.30;1.00
54788;DHT22;59598;48.112;16.280;2024-02-23T01:45:41;8.30;1.00
54788;DHT22;59598;48.112;16.280;2024-02-23T01:48:12;8.20;1.00
54788;DHT22;59598;48.112;16.280;2024-02-23T01:50:44;8.20;1.00
54788;DHT22;59598;48.112;16.280;2024-02-23T01:53:16;8.10;1.00
54788;DHT22;59598;48.112;16.280;2024-02-23T01:55:50;8.10;1.00
54788;DHT22;59598;48.112;16.280;2024-02-23T01:58:22;8.00;1.00
54788;DHT22;59598;48.112;16.280;2024-02-23T02:00:53;8.00;1.00
54788;DHT22;59598;48.112;16.280;2024-02-23T02:03:24;8.00;1.00
54788;DHT22;59598;48.112;16.280;2024-02-23T02:05:57;8.00;1.00
54788;DHT22;59598;48.112;16.280;2024-02-23T02:08:31;7.90;1.00
54788;DHT22;59598;48.112;16.280;2024-02-23T02:11:03;7.90;1.00
54788;DHT22;59598;48.112;16.280;2024-02-23T02:13:34;8.00;1.00
54788;DHT22;59598;48.112;16.280;2024-02-23T02:16:05;8.00;1.00
54788;DHT22;59598;48.112;16.280;2024-02-23T02:18:37;8.00;1.00
54788;DHT22;59598;48.112;16.280;2024-02-23T02:21:08;8.10;1.00
54788;DHT22;59598;48.112;16.280;2024-02-23T02:23:39;8.30;1.00
54788;DHT22;59598;48.112;16.280;2024-02-23T02:26:11;8.40;1.00
54788;DHT22;59598;48.112;16.280;2024-02-23T02:28:42;8.40;99.90
54788;DHT22;59598;48.112;16.280;2024-02-23T02:31:13;8.50;99.90
54788;DHT22;59598;48.112;16.280;2024-02-23T02:33:44;8.50;99.90
54788;DHT22;59598;48.112;16.280;2024-02-23T02:36:15;8.40;1.00
54788;DHT22;59598;48.112;16.280;2024-02-23T02:38:47;8.50;1.00
54788;DHT22;59598;48.112;16.280;2024-02-23T02:41:18;8.60;1.00
54788;DHT22;59598;48.112;16.280;2024-02-23T02:43:50;8.50;1.00
54788;DHT22;59598;48.112;16.280;2024-02-23T02:46:21;8.40;99.90
54788;DHT22;59598;48.112;16.280;2024-02-23T02:48:52;8.40;99.90
54788;DHT22;59598;48.112;16.280;2024-02-23T02:51:23;8.40;99.90
54788;DHT22;59598;48.112;16.280;2024-02-23T02:53:54;8.20;1.00
54788;DHT22;59598;48.112;16.280;2024-02-23T02:56:25;8.10;1.00
54788;DHT22;59598;48.112;16.280;2024-02-23T02:58:57;8.10;1.00
54788;DHT22;59598;48.112;16.280;2024-02-23T03:01:28;8.10;1.00
54788;DHT22;59598;48.112;16.280;2024-02-23T03:03:59;8.10;1.00
54788;DHT22;59598;48.112;16.280;2024-02-23T03:06:30;8.10;1.00
54788;DHT22;59598;48.112;16.280;2024-02-23T03:09:01;8.00;1.00
54788;DHT22;59598;48.112;16.280;2024-02-23T03:11:33;8.00;1.00
54788;DHT22;59598;48.112;16.280;2024-02-23T03:14:05;8.10;99.90
54788;DHT22;59598;48.112;16.280;2024-02-23T03:16:36;8.20;99.90
54788;DHT22;59598;48.112;16.280;2024-02-23T03:19:08;8.10;99.90
54788;DHT22;59598;48.112;16.280;2024-02-23T03:21:39;8.10;99.90
54788;DHT22;59598;48.112;16.280;2024-02-23T03:24:10;7.90;99.90
54788;DHT22;59598;48.112;16.280;2024-02-23T03:26:41;7.80;99.90
54788;DHT22;59598;48.112;16.280;2024-02-23T03:29:13;7.70;99.90
54788;DHT22;59598;48.112;16.280;2024-02-23T03:31:44;7.90;99.90
54788;DHT22;59598;48.112;16.280;2024-02-23T03:34:15;8.00;99.90
54788;DHT22;59598;48.112;16.280;2024-02-23T03:36:46;8.00;99.90
54788;DHT22;59598;48.112;16.280;2024-02-23T03:39:18;8.00;99.90
54788;DHT22;59598;48.112;16.280;2024-02-23T03:41:49;7.90;99.90
54788;DHT22;59598;48.112;16.280;2024-02-23T03:44:20;7.90;99.90
54788;DHT22;59598;48.112;16.280;2024-02-23T03:46:51;7.90;99.90
54788;DHT22;59598;48.112;16.280;2024-02-23T03:49:22;7.90;99.90
54788;DHT22;59598;48.112;16.280;2024-02-23T03:51:54;7.90;99.90
54788;DHT22;59598;48.112;16.280;2024-02-23T03:54:25;8.00;99.90
54788;DHT22;59598;48.112;16.280;2024-02-23T03:56:56;8.00;99.90
54788;DHT22;59598;48.112;16.280;2024-02-23T03:59:27;8.00;99.90
54788;DHT22;59598;48.112;16.280;2024-02-23T04:01:58;8.10;99.90
54788;DHT22;59598;48.112;16.280;2024-02-23T04:04:30;8.70;1.00
54788;DHT22;59598;48.112;16.280;2024-02-23T04:07:01;9.10;99.90
54788;DHT22;59598;48.112;16.280;2024-02-23T04:09:32;9.00;99.90
54788;DHT22;59598;48.112;16.280;2024-02-23T04:12:03;8.80;1.00
54788;DHT22;59598;48.112;16.280;2024-02-23T04:14:35;8.60;1.00
54788;DHT22;59598;48.112;16.280;2024-02-23T04:17:07;8.50;1.00
54788;DHT22;59598;48.112;16.280;2024-02-23T04:19:39;8.40;1.00
54788;DHT22;59598;48.112;16.280;2024-02-23T04:22:10;8.40;1.00
54788;DHT22;59598;48.112;16.280;2024-02-23T04:24:42;8.40;1.00
54788;DHT22;59598;48.112;16.280;2024-02-23T04:27:13;8.40;1.00
54788;DHT22;59598;48.112;16.280;2024-02-23T04:29:44;8.30;1.00
54788;DHT22;59598;48.112;16.280;2024-02-23T04:32:15;8.30;1.00
54788;DHT22;59598;48.112;16.280;2024-02-23T04:34:46;8.30;1.00
54788;DHT22;59598;48.112;16.280;2024-02-23T04:37:17;8.30;1.00
54788;DHT22;59598;48.112;16.280;2024-02-23T04:39:49;8.20;1.00
54788;DHT22;59598;48.112;16.280;2024-02-23T04:42:20;8.10;1.00
54788;DHT22;59598;48.112;16.280;2024-02-23T04:44:51;8.20;1.00
54788;DHT22;59598;48.112;16.280;2024-02-23T04:47:25;8.20;1.00
54788;DHT22;59598;48.112;16.280;2024-02-23T04:49:56;8.10;1.00
54788;DHT22;59598;48.112;16.280;2024-02-23T04:52:28;8.10;1.00
54788;DHT22;59598;48.112;16.280;2024-02-23T04:54:59;8.10;1.00
54788;DHT22;59598;48.112;16.280;2024-02-23T04:57:31;8.20;1.00
54788;DHT22;59598;48.112;16.280;2024-02-23T05:00:03;8.20;1.00
54788;DHT22;59598;48.112;16.280;2024-02-23T05:02:34;8.20;99.90
54788;DHT22;59598;48.112;16.280;2024-02-23T05:05:06;8.20;1.00
54788;DHT22;59598;48.112;16.280;2024-02-23T05:07:38;8.20;1.00
54788;DHT22;59598;48.112;16.280;2024-02-23T05:10:10;8.20;99.90
54788;DHT22;59598;48.112;16.280;2024-02-23T05:12:41;8.20;56.60
54788;DHT22;59598;48.112;16.280;2024-02-23T05:15:12;8.20;99.90
54788;DHT22;59598;48.112;16.280;2024-02-23T05:17:43;8.20;1.00
54788;DHT22;59598;48.112;16.280;2024-02-23T05:20:14;8.30;99.90
54788;DHT22;59598;48.112;16.280;2024-02-23T05:22:46;8.20;99.90
54788;DHT22;59598;48.112;16.280;2024-02-23T05:25:17;8.20;1.00
54788;DHT22;59598;48.112;16.280;2024-02-23T05:27:48;8.10;1.00
54788;DHT22;59598;48.112;16.280;2024-02-23T05:30:19;8.10;1.00
54788;DHT22;59598;48.112;16.280;2024-02-23T05:32:50;8.10;1.00
54788;DHT22;59598;48.112;16.280;2024-02-23T05:35:22;8.10;1.00
54788;DHT22;59598;48.112;16.280;2024-02-23T05:37:53;8.10;1.00
54788;DHT22;59598;48.112;16.280;2024-02-23T05:40:24;8.10;1.00
54788;DHT22;59598;48.112;16.280;2024-02-23T05:42:55;8.10;99.90
54788;DHT22;59598;48.112;16.280;2024-02-23T05:45:27;8.10;99.90
54788;DHT22;59598;48.112;16.280;2024-02-23T05:47:58;8.10;90.60
54788;DHT22;59598;48.112;16.280;2024-02-23T05:50:29;8.10;1.00
54788;DHT22;59598;48.112;16.280;2024-02-23T05:53:00;8.20;35.60
54788;DHT22;59598;48.112;16.280;2024-02-23T05:55:31;8.10;99.90
54788;DHT22;59598;48.112;16.280;2024-02-23T05:58:03;8.20;99.90
54788;DHT22;59598;48.112;16.280;2024-02-23T06:00:35;8.30;99.90
54788;DHT22;59598;48.112;16.280;2024-02-23T06:03:07;8.30;99.90
54788;DHT22;59598;48.112;16.280;2024-02-23T06:05:38;8.40;1.00
54788;DHT22;59598;48.112;16.280;2024-02-23T06:08:09;8.50;99.90
54788;DHT22;59598;48.112;16.280;2024-02-23T06:10:40;8.50;1.00
54788;DHT22;59598;48.112;16.280;2024-02-23T06:13:13;8.50;1.00
54788;DHT22;59598;48.112;16.280;2024-02-23T06:15:45;8.60;99.90
54788;DHT22;59598;48.112;16.280;2024-02-23T06:18:16;8.60;11.00
54788;DHT22;59598;48.112;16.280;2024-02-23T06:20:49;8.60;1.00
54788;DHT22;59598;48.112;16.280;2024-02-23T06:23:20;8.60;1.00
54788;DHT22;59598;48.112;16.280;2024-02-23T06:25:53;8.60;1.00
54788;DHT22;59598;48.112;16.280;2024-02-23T06:28:24;8.60;1.00
54788;DHT22;59598;48.112;16.280;2024-02-23T06:30:55;8.60;1.00
54788;DHT22;59598;48.112;16.280;2024-02-23T06:33:26;8.60;1.00
54788;DHT22;59598;48.112;16.280;2024-02-23T06:35:57;8.60;1.00
54788;DHT22;59598;48.112;16.280;2024-02-23T06:38:28;8.60;1.00
54788;DHT22;59598;48.112;16.280;2024-02-23T06:41:00;8.60;1.00
54788;DHT22;59598;48.112;16.280;2024-02-23T06:43:31;8.60;1.00
54788;DHT22;59598;48.112;16.280;2024-02-23T06:46:08;8.60;1.00
54788;DHT22;59598;48.112;16.280;2024-02-23T06:48:40;8.50;1.00
54788;DHT22;59598;48.112;16.280;2024-02-23T06:51:11;8.50;1.00
54788;DHT22;59598;48.112;16.280;2024-02-23T06:53:42;8.50;1.00
54788;DHT22;59598;48.112;16.280;2024-02-23T06:56:13;8.50;1.00
54788;DHT22;59598;48.112;16.280;2024-02-23T06:58:45;8.50;99.90
54788;DHT22;59598;48.112;16.280;2024-02-23T07:01:16;8.60;99.90
54788;DHT22;59598;48.112;16.280;2024-02-23T07:03:47;8.60;1.00
54788;DHT22;59598;48.112;16.280;2024-02-23T07:06:21;8.70;64.30
54788;DHT22;59598;48.112;16.280;2024-02-23T07:08:52;8.80;1.00
54788;DHT22;59598;48.112;16.280;2024-02-23T07:11:25;8.80;1.00
54788;DHT22;59598;48.112;16.280;2024-02-23T07:13:56;8.80;1.00
54788;DHT22;59598;48.112;16.280;2024-02-23T07:16:28;8.90;1.00
54788;DHT22;59598;48.112;16.280;2024-02-23T07:18:59;9.10;1.00
54788;DHT22;59598;48.112;16.280;2024-02-23T07:21:30;9.20;99.90
54788;DHT22;59598;48.112;16.280;2024-02-23T07:24:01;9.30;99.90
54788;DHT22;59598;48.112;16.280;2024-02-23T07:26:32;9.30;99.90
54788;DHT22;59598;48.112;16.280;2024-02-23T07:29:04;9.40;99.90
54788;DHT22;59598;48.112;16.280;2024-02-23T07:31:35;9.40;99.90
54788;DHT22;59598;48.112;16.280;2024-02-23T07:34:06;9.40;74.80
54788;DHT22;59598;48.112;16.280;2024-02-23T07:36:37;9.40;99.90
54788;DHT22;59598;48.112;16.280;2024-02-23T07:39:08;9.40;99.90
54788;DHT22;59598;48.112;16.280;2024-02-23T07:41:40;9.30;99.90
54788;DHT22;59598;48.112;16.280;2024-02-23T07:44:11;9.20;99.90
54788;DHT22;59598;48.112;16.280;2024-02-23T07:46:42;9.00;1.00
54788;DHT22;59598;48.112;16.280;2024-02-23T07:49:13;8.90;1.00
54788;DHT22;59598;48.112;16.280;2024-02-23T07:51:44;8.80;1.00
54788;DHT22;59598;48.112;16.280;2024-02-23T07:54:16;8.70;1.00
54788;DHT22;59598;48.112;16.280;2024-02-23T07:56:47;8.60;99.90
54788;DHT22;59598;48.112;16.280;2024-02-23T07:59:18;8.60;99.90
54788;DHT22;59598;48.112;16.280;2024-02-23T08:01:49;8.60;99.90
54788;DHT22;59598;48.112;16.280;2024-02-23T08:04:20;8.60;1.00
54788;DHT22;59598;48.112;16.280;2024-02-23T08:06:52;8.60;1.00
54788;DHT22;59598;48.112;16.280;2024-02-23T08:09:23;8.60;99.90
54788;DHT22;59598;48.112;16.280;2024-02-23T08:11:54;8.60;1.00
54788;DHT22;59598;48.112;16.280;2024-02-23T08:14:26;8.60;1.00
54788;DHT22;59598;48.112;16.280;2024-02-23T08:16:57;8.70;99.90
54788;DHT22;59598;48.112;16.280;2024-02-23T08:19:28;8.70;1.00
54788;DHT22;59598;48.112;16.280;2024-02-23T08:21:59;8.70;1.00
54788;DHT22;59598;48.112;16.280;2024-02-23T08:24:31;8.90;1.00
54788;DHT22;59598;48.112;16.280;2024-02-23T08:27:02;9.00;99.90
54788;DHT22;59598;48.112;16.280;2024-02-23T08:29:33;9.20;1.00
54788;DHT22;59598;48.112;16.280;2024-02-23T08:32:08;9.30;71.00
54788;DHT22;59598;48.112;16.280;2024-02-23T08:34:39;9.50;1.00
54788;DHT22;59598;48.112;16.280;2024-02-23T08:37:11;9.70;1.00
54788;DHT22;59598;48.112;16.280;2024-02-23T08:39:43;9.90;1.00
54788;DHT22;59598;48.112;16.280;2024-02-23T08:42:14;10.00;1.00
54788;DHT22;59598;48.112;16.280;2024-02-23T08:44:45;10.10;1.00
54788;DHT22;59598;48.112;16.280;2024-02-23T08:47:16;10.10;1.00
54788;DHT22;59598;48.112;16.280;2024-02-23T08:49:48;10.10;99.90
54788;DHT22;59598;48.112;16.280;2024-02-23T08:52:19;10.10;1.00
54788;DHT22;59598;48.112;16.280;2024-02-23T08:54:51;10.10;99.90
54788;DHT22;59598;48.112;16.280;2024-02-23T08:57:22;10.10;99.90
54788;DHT22;59598;48.112;16.280;2024-02-23T08:59:54;10.10;99.90
54788;DHT22;59598;48.112;16.280;2024-02-23T09:02:28;10.10;99.90
54788;DHT22;59598;48.112;16.280;2024-02-23T09:04:59;10.10;99.90
54788;DHT22;59598;48.112;16.280;2024-02-23T09:07:30;10.20;99.90
54788;DHT22;59598;48.112;16.280;2024-02-23T09:10:02;10.50;99.90
54788;DHT22;59598;48.112;16.280;2024-02-23T09:12:35;10.60;99.90
54788;DHT22;59598;48.112;16.280;2024-02-23T09:15:07;10.60;99.90
54788;DHT22;59598;48.112;16.280;2024-02-23T09:17:40;10.80;99.90
54788;DHT22;59598;48.112;16.280;2024-02-23T09:20:12;10.90;99.90
54788;DHT22;59598;48.112;16.280;2024-02-23T09:22:43;10.90;1.00
54788;DHT22;59598;48.112;16.280;2024-02-23T09:25:15;11.00;1.00
54788;DHT22;59598;48.112;16.280;2024-02-23T09:27:46;11.00;1.00
54788;DHT22;59598;48.112;16.280;2024-02-23T09:30:17;11.00;1.00
54788;DHT22;59598;48.112;16.280;2024-02-23T09:32:48;11.00;1.00
54788;DHT22;59598;48.112;16.280;2024-02-23T09:35:20;11.00;1.00
54788;DHT22;59598;48.112;16.280;2024-02-23T09:37:51;11.10;1.00
54788;DHT22;59598;48.112;16.280;2024-02-23T09:40:23;11.10;1.00
54788;DHT22;59598;48.112;16.280;2024-02-23T09:42:58;10.90;1.00
54788;DHT22;59598;48.112;16.280;2024-02-23T09:45:30;10.80;1.00
54788;DHT22;59598;48.112;16.280;2024-02-23T09:48:02;10.70;1.00
54788;DHT22;59598;48.112;16.280;2024-02-23T09:50:34;10.60;1.00
54788;DHT22;59598;48.112;16.280;2024-02-23T09:53:06;10.70;99.90
54788;DHT22;59598;48.112;16.280;2024-02-23T09:55:40;10.70;1.00
54788;DHT22;59598;48.112;16.280;2024-02-23T09:58:13;10.90;99.90
54788;DHT22;59598;48.112;16.280;2024-02-23T10:00:44;10.90;99.90
54788;DHT22;59598;48.112;16.280;2024-02-23T10:03:16;10.90;1.00
54788;DHT22;59598;48.112;16.280;2024-02-23T10:05:47;10.90;99.90
54788;DHT22;59598;48.112;16.280;2024-02-23T10:08:19;10.90;1.00
54788;DHT22;59598;48.112;16.280;2024-02-23T10:10:50;10.90;1.00
54788;DHT22;59598;48.112;16.280;2024-02-23T10:13:23;10.80;1.00
54788;DHT22;59598;48.112;16.280;2024-02-23T10:15:55;10.70;99.90
54788;DHT22;59598;48.112;16.280;2024-02-23T10:18:26;10.70;1.00
54788;DHT22;59598;48.112;16.280;2024-02-23T10:20:57;10.70;1.00
54788;DHT22;59598;48.112;16.280;2024-02-23T10:23:29;10.60;99.90
54788;DHT22;59598;48.112;16.280;2024-02-23T10:26:00;10.50;1.00
54788;DHT22;59598;48.112;16.280;2024-02-23T10:28:31;10.30;99.90
54788;DHT22;59598;48.112;16.280;2024-02-23T10:31:02;10.20;99.90
54788;DHT22;59598;48.112;16.280;2024-02-23T10:33:34;10.30;99.90
54788;DHT22;59598;48.112;16.280;2024-02-23T10:36:07;10.50;1.00
54788;DHT22;59598;48.112;16.280;2024-02-23T10:38:45;10.70;1.00
54788;DHT22;59598;48.112;16.280;2024-02-23T10:41:17;10.80;99.90
54788;DHT22;59598;48.112;16.280;2024-02-23T10:43:52;10.80;99.90
54788;DHT22;59598;48.112;16.280;2024-02-23T10:46:26;10.90;99.90
54788;DHT22;59598;48.112;16.280;2024-02-23T10:48:58;10.90;99.90
54788;DHT22;59598;48.112;16.280;2024-02-23T10:51:33;10.90;1.00
54788;DHT22;59598;48.112;16.280;2024-02-23T10:54:06;10.80;1.00
54788;DHT22;59598;48.112;16.280;2024-02-23T10:56:37;10.60;1.00
54788;DHT22;59598;48.112;16.280;2024-02-23T10:59:09;10.70;1.00
54788;DHT22;59598;48.112;16.280;2024-02-23T11:01:40;10.70;1.00
54788;DHT22;59598;48.112;16.280;2024-02-23T11:04:11;10.70;1.00
54788;DHT22;59598;48.112;16.280;2024-02-23T11:06:49;10.50;1.00
54788;DHT22;59598;48.112;16.280;2024-02-23T11:09:24;10.40;1.00
54788;DHT22;59598;48.112;16.280;2024-02-23T11:11:57;10.40;1.00
54788;DHT22;59598;48.112;16.280;2024-02-23T11:14:36;10.50;1.00
54788;DHT22;59598;48.112;16.280;2024-02-23T11:17:17;10.40;1.00
54788;DHT22;59598;48.112;16.280;2024-02-23T11:19:50;10.20;1.00
54788;DHT22;59598;48.112;16.280;2024-02-23T11:22:29;10.30;1.00
54788;DHT22;59598;48.112;16.280;2024-02-23T11:25:07;10.50;1.00
54788;DHT22;59598;48.112;16.280;2024-02-23T11:27:41;10.40;1.00
54788;DHT22;59598;48.112;16.280;2024-02-23T11:30:16;10.30;1.00
54788;DHT22;59598;48.112;16.280;2024-02-23T11:32:48;10.10;1.00
54788;DHT22;59598;48.112;16.280;2024-02-23T11:35:19;10.00;1.00
54788;DHT22;59598;48.112;16.280;2024-02-23T11:37:56;10.20;1.00
54788;DHT22;59598;48.112;16.280;2024-02-23T11:40:32;10.30;1.00
54788;DHT22;59598;48.112;16.280;2024-02-23T11:43:04;10.30;1.00
54788;DHT22;59598;48.112;16.280;2024-02-23T11:45:36;10.20;1.00
54788;DHT22;59598;48.112;16.280;2024-02-23T11:48:07;10.20;1.00
54788;DHT22;59598;48.112;16.280;2024-02-23T11:50:39;10.10;1.00
54788;DHT22;59598;48.112;16.280;2024-02-23T11:53:10;10.10;1.00
54788;DHT22;59598;48.112;16.280;2024-02-23T11:55:41;10.20;1.00
54788;DHT22;59598;48.112;16.280;2024-02-23T11:58:13;10.20;1.00
54788;DHT22;59598;48.112;16.280;2024-02-23T12:00:44;10.30;1.00
54788;DHT22;59598;48.112;16.280;2024-02-23T12:03:16;10.30;1.00
54788;DHT22;59598;48.112;16.280;2024-02-23T12:05:51;10.50;1.00
54788;DHT22;59598;48.112;16.280;2024-02-23T12:08:24;10.30;1.00
54788;DHT22;59598;48.112;16.280;2024-02-23T12:10:57;10.30;1.00
54788;DHT22;59598;48.112;16.280;2024-02-23T12:13:31;10.30;1.00
54788;DHT22;59598;48.112;16.280;2024-02-23T12:16:03;10.30;1.00
54788;DHT22;59598;48.112;16.280;2024-02-23T12:18:35;10.20;1.00
54788;DHT22;59598;48.112;16.280;2024-02-23T12:21:08;10.10;1.00
54788;DHT22;59598;48.112;16.280;2024-02-23T12:23:45;10.10;1.00
54788;DHT22;59598;48.112;16.280;2024-02-23T12:26:18;10.00;1.00
54788;DHT22;59598;48.112;16.280;2024-02-23T12:28:49;9.90;1.00
54788;DHT22;59598;48.112;16.280;2024-02-23T12:31:24;9.70;1.00
54788;DHT22;59598;48.112;16.280;2024-02-23T12:33:57;9.70;99.90
54788;DHT22;59598;48.112;16.280;2024-02-23T12:36:28;9.50;1.00
54788;DHT22;59598;48.112;16.280;2024-02-23T12:39:00;9.50;78.00
54788;DHT22;59598;48.112;16.280;2024-02-23T12:41:31;9.40;1.00
54788;DHT22;59598;48.112;16.280;2024-02-23T12:44:03;9.50;99.90
54788;DHT22;59598;48.112;16.280;2024-02-23T12:46:34;9.40;99.90
54788;DHT22;59598;48.112;16.280;2024-02-23T12:49:05;9.40;1.00
54788;DHT22;59598;48.112;16.280;2024-02-23T12:51:36;9.40;1.00
54788;DHT22;59598;48.112;16.280;2024-02-23T12:54:08;9.40;1.00
54788;DHT22;59598;48.112;16.280;2024-02-23T12:56:39;9.40;1.00
54788;DHT22;59598;48.112;16.280;2024-02-23T12:59:10;9.30;99.90
54788;DHT22;59598;48.112;16.280;2024-02-23T13:01:41;9.40;1.00
54788;DHT22;59598;48.112;16.280;2024-02-23T13:04:13;9.40;1.00
54788;DHT22;59598;48.112;16.280;2024-02-23T13:06:45;9.40;1.00
54788;DHT22;59598;48.112;16.280;2024-02-23T13:09:16;9.30;1.00
54788;DHT22;59598;48.112;16.280;2024-02-23T13:11:47;9.30;1.00
54788;DHT22;59598;48.112;16.280;2024-02-23T13:14:18;9.30;1.00
54788;DHT22;59598;48.112;16.280;2024-02-23T13:16:50;9.30;1.00
54788;DHT22;59598;48.112;16.280;2024-02-23T13:19:21;9.20;1.00
54788;DHT22;59598;48.112;16.280;2024-02-23T13:21:53;9.20;1.00
54788;DHT22;59598;48.112;16.280;2024-02-23T13:24:24;9.20;1.00
54788;DHT22;59598;48.112;16.280;2024-02-23T13:26:55;9.20;1.00
54788;DHT22;59598;48.112;16.280;2024-02-23T13:29:26;9.20;1.00
54788;DHT22;59598;48.112;16.280;2024-02-23T13:31:58;9.20;1.00
54788;DHT22;59598;48.112;16.280;2024-02-23T13:34:29;9.20;1.00
54788;DHT22;59598;48.112;16.280;2024-02-23T13:37:00;9.30;1.00
54788;DHT22;59598;48.112;16.280;2024-02-23T13:39:31;9.30;1.00
54788;DHT22;59598;48.112;16.280;2024-02-23T13:42:03;9.30;1.00
54788;DHT22;59598;48.112;16.280;2024-02-23T13:44:36;9.40;1.00
54788;DHT22;59598;48.112;16.280;2024-02-23T13:47:07;9.50;1.00
54788;DHT22;59598;48.112;16.280;2024-02-23T13:49:38;9.50;99.90
54788;DHT22;59598;48.112;16.280;2024-02-23T13:52:10;9.50;99.90
54788;DHT22;59598;48.112;16.280;2024-02-23T13:54:41;9.50;1.00
54788;DHT22;59598;48.112;16.280;2024-02-23T13:57:13;9.50;99.90
54788;DHT22;59598;48.112;16.280;2024-02-23T13:59:44;9.50;26.30
54788;DHT22;59598;48.112;16.280;2024-02-23T14:02:16;9.70;40.90
54788;DHT22;59598;48.112;16.280;2024-02-23T14:04:49;9.80;1.00
54788;DHT22;59598;48.112;16.280;2024-02-23T14:07:20;9.90;1.00
54788;DHT22;59598;48.112;16.280;2024-02-23T14:09:52;9.80;33.80
54788;DHT22;59598;48.112;16.280;2024-02-23T14:12:23;9.70;99.90
54788;DHT22;59598;48.112;16.280;2024-02-23T14:14:54;9.70;99.90
54788;DHT22;59598;48.112;16.280;2024-02-23T14:17:26;9.70;1.00
54788;DHT22;59598;48.112;16.280;2024-02-23T14:19:57;9.70;1.00
54788;DHT22;59598;48.112;16.280;2024-02-23T14:22:28;9.70;1.00
54788;DHT22;59598;48.112;16.280;2024-02-23T14:24:59;9.60;1.00
54788;DHT22;59598;48.112;16.280;2024-02-23T14:27:31;9.50;1.00
54788;DHT22;59598;48.112;16.280;2024-02-23T14:30:02;9.40;1.00
54788;DHT22;59598;48.112;16.280;2024-02-23T14:32:33;9.40;99.90
54788;DHT22;59598;48.112;16.280;2024-02-23T14:35:06;9.40;99.90
54788;DHT22;59598;48.112;16.280;2024-02-23T14:37:37;9.30;99.90
54788;DHT22;59598;48.112;16.280;2024-02-23T14:40:08;9.30;1.00
54788;DHT22;59598;48.112;16.280;2024-02-23T14:42:40;9.30;1.00
54788;DHT22;59598;48.112;16.280;2024-02-23T14:45:12;9.30;1.00
54788;DHT22;59598;48.112;16.280;2024-02-23T14:47:44;9.30;1.00
54788;DHT22;59598;48.112;16.280;2024-02-23T14:50:15;9.40;1.00
54788;DHT22;59598;48.112;16.280;2024-02-23T14:52:46;9.50;1.00
54788;DHT22;59598;48.112;16.280;2024-02-23T14:55:17;9.50;1.00
54788;DHT22;59598;48.112;16.280;2024-02-23T14:57:49;9.50;59.40
54788;DHT22;59598;48.112;16.280;2024-02-23T15:00:20;9.50;1.00
54788;DHT22;59598;48.112;16.280;2024-02-23T15:02:51;9.40;1.00
54788;DHT22;59598;48.112;16.280;2024-02-23T15:05:22;9.50;1.00
54788;DHT22;59598;48.112;16.280;2024-02-23T15:07:54;9.50;1.00
54788;DHT22;59598;48.112;16.280;2024-02-23T15:10:25;9.50;1.00
54788;DHT22;59598;48.112;16.280;2024-02-23T15:12:56;9.40;99.90
54788;DHT22;59598;48.112;16.280;2024-02-23T15:15:27;9.50;99.90
54788;DHT22;59598;48.112;16.280;2024-02-23T15:17:58;9.50;99.90
54788;DHT22;59598;48.112;16.280;2024-02-23T15:20:30;9.50;1.00
54788;DHT22;59598;48.112;16.280;2024-02-23T15:23:01;9.40;99.90
54788;DHT22;59598;48.112;16.280;2024-02-23T15:25:32;9.40;1.00
54788;DHT22;59598;48.112;16.280;2024-02-23T15:28:05;9.40;1.00
54788;DHT22;59598;48.112;16.280;2024-02-23T15:30:36;9.40;99.90
54788;DHT22;59598;48.112;16.280;2024-02-23T15:33:07;9.40;1.00
54788;DHT22;59598;48.112;16.280;2024-02-23T15:35:39;9.40;1.00
54788;DHT22;59598;48.112;16.280;2024-02-23T15:38:10;9.40;1.00
54788;DHT22;59598;48.112;16.280;2024-02-23T15:40:41;9.40;1.00
54788;DHT22;59598;48.112;16.280;2024-02-23T15:43:12;9.40;99.90
54788;DHT22;59598;48.112;16.280;2024-02-23T15:45:43;9.30;99.90
54788;DHT22;59598;48.112;16.280;2024-02-23T15:48:15;9.40;1.00
54788;DHT22;59598;48.112;16.280;2024-02-23T15:50:46;9.30;99.90
54788;DHT22;59598;48.112;16.280;2024-02-23T15:53:17;9.40;1.00
54788;DHT22;59598;48.112;16.280;2024-02-23T15:55:48;9.40;1.00
54788;DHT22;59598;48.112;16.280;2024-02-23T15:58:19;9.40;65.60
54788;DHT22;59598;48.112;16.280;2024-02-23T16:00:52;9.50;91.80
54788;DHT22;59598;48.112;16.280;2024-02-23T16:03:25;9.40;1.00
54788;DHT22;59598;48.112;16.280;2024-02-23T16:05:56;9.40;1.00